createdAt,value
2018-06-25T00:00:19.583Z,14.53
2018-06-25T00:02:49.295Z,14.53
2018-06-25T00:05:19.381Z,14.52
2018-06-25T00:07:49.675Z,14.55
2018-06-25T00:10:19.773Z,14.53
2018-06-25T00:12:49.389Z,14.53
2018-06-25T00:15:19.480Z,14.41
2018-06-25T00:17:49.742Z,14.33
2018-06-25T00:20:19.826Z,14.26
2018-06-25T00:22:50.045Z,14.31
2018-06-25T00:25:20.152Z,14.24
2018-06-25T00:27:50.237Z,14.27
2018-06-25T00:30:20.402Z,14.28
2018-06-25T00:32:50.416Z,14.29
2018-06-25T00:35:20.500Z,14.31
2018-06-25T00:37:50.560Z,14.33
2018-06-25T00:40:20.651Z,14.32
2018-06-25T00:42:50.777Z,14.32
2018-06-25T00:45:20.834Z,14.33
2018-06-25T00:47:50.908Z,14.31
2018-06-25T00:50:20.968Z,14.30
2018-06-25T00:52:50.986Z,14.28
2018-06-25T00:55:21.168Z,14.32
2018-06-25T00:57:51.523Z,14.37
2018-06-25T01:00:21.581Z,14.35
2018-06-25T01:02:51.607Z,14.28
2018-06-25T01:05:21.720Z,14.29
2018-06-25T01:07:51.816Z,14.28
2018-06-25T01:10:21.836Z,14.31
2018-06-25T01:12:51.871Z,14.33
2018-06-25T01:15:21.971Z,14.32
2018-06-25T01:17:52.075Z,14.29
2018-06-25T01:20:22.184Z,14.30
2018-06-25T01:22:51.797Z,14.19
2018-06-25T01:25:21.831Z,14.20
2018-06-25T01:27:51.919Z,14.21
2018-06-25T01:30:21.972Z,14.17
2018-06-25T01:32:51.564Z,14.16
2018-06-25T01:35:21.643Z,14.14
2018-06-25T01:37:51.664Z,14.13
2018-06-25T01:40:21.972Z,14.10
2018-06-25T01:42:51.724Z,14.13
2018-06-25T01:45:21.785Z,14.10
2018-06-25T01:47:51.769Z,14.12
2018-06-25T01:50:22.303Z,14.09
2018-06-25T01:52:52.811Z,14.09
2018-06-25T01:55:22.918Z,14.08
2018-06-25T01:57:52.951Z,14.10
2018-06-25T02:00:23.012Z,14.03
2018-06-25T02:02:53.108Z,13.99
2018-06-25T02:05:23.196Z,14.03
2018-06-25T02:07:53.449Z,14.08
2018-06-25T02:10:23.623Z,14.02
2018-06-25T02:12:53.305Z,14.02
2018-06-25T02:15:23.402Z,14.03
2018-06-25T02:17:53.465Z,14.01
2018-06-25T02:20:23.693Z,13.98
2018-06-25T02:22:53.905Z,13.95
2018-06-25T02:25:23.949Z,13.96
2018-06-25T02:27:54.024Z,13.90
2018-06-25T02:30:24.286Z,13.90
2018-06-25T02:32:54.342Z,13.93
2018-06-25T02:35:24.387Z,13.89
2018-06-25T02:37:54.402Z,13.90
2018-06-25T02:40:24.448Z,13.88
2018-06-25T02:42:54.473Z,13.83
2018-06-25T02:45:24.532Z,13.84
2018-06-25T02:47:54.242Z,13.84
2018-06-25T02:50:24.291Z,13.83
2018-06-25T02:52:54.369Z,13.81
2018-06-25T02:55:24.442Z,13.79
2018-06-25T02:57:54.518Z,13.79
2018-06-25T03:00:24.572Z,13.75
2018-06-25T03:02:54.672Z,13.74
2018-06-25T03:05:24.700Z,13.72
2018-06-25T03:07:54.852Z,13.74
2018-06-25T03:10:24.883Z,13.74
2018-06-25T03:12:54.937Z,13.72
2018-06-25T03:15:24.922Z,13.70
2018-06-25T03:17:54.996Z,13.71
2018-06-25T03:20:25.080Z,13.64
2018-06-25T03:22:55.167Z,13.64
2018-06-25T03:25:25.200Z,13.57
2018-06-25T03:27:55.249Z,13.57
2018-06-25T03:30:25.288Z,13.57
2018-06-25T03:32:55.440Z,13.57
2018-06-25T03:35:26.277Z,13.58
2018-06-25T03:37:56.336Z,13.58
2018-06-25T03:40:26.431Z,13.55
2018-06-25T03:42:56.526Z,13.53
2018-06-25T03:45:26.520Z,13.54
2018-06-25T03:47:56.595Z,13.53
2018-06-25T03:50:26.693Z,13.52
2018-06-25T03:52:57.377Z,13.50
2018-06-25T03:55:27.465Z,13.52
2018-06-25T03:57:57.683Z,13.50
2018-06-25T04:00:27.757Z,13.48
2018-06-25T04:02:57.945Z,13.48
2018-06-25T04:05:27.629Z,13.48
2018-06-25T04:07:57.721Z,13.48
2018-06-25T04:10:27.845Z,13.48
2018-06-25T04:12:58.509Z,13.50
2018-06-25T04:15:28.716Z,13.46
2018-06-25T04:17:58.856Z,13.46
2018-06-25T04:20:28.941Z,13.44
2018-06-25T04:22:59.002Z,13.47
2018-06-25T04:25:29.453Z,13.48
2018-06-25T04:27:59.519Z,13.52
2018-06-25T04:30:29.551Z,13.53
2018-06-25T04:32:59.642Z,13.55
2018-06-25T04:35:29.675Z,13.57
2018-06-25T04:37:59.740Z,13.57
2018-06-25T04:40:29.705Z,13.38
2018-06-25T04:42:59.812Z,13.48
2018-06-25T04:45:29.444Z,13.56
2018-06-25T04:47:59.570Z,13.58
2018-06-25T04:50:29.810Z,13.60
2018-06-25T04:52:59.902Z,13.61
2018-06-25T04:55:30.032Z,13.63
2018-06-25T04:58:00.124Z,13.62
2018-06-25T05:00:30.171Z,13.68
2018-06-25T05:03:00.264Z,13.71
2018-06-25T05:05:30.373Z,13.75
2018-06-25T05:08:01.055Z,13.77
2018-06-25T05:10:31.145Z,13.78
2018-06-25T05:13:01.167Z,13.83
2018-06-25T05:15:31.230Z,13.85
2018-06-25T05:18:01.478Z,13.78
2018-06-25T05:20:31.583Z,13.83
2018-06-25T05:23:01.655Z,13.85
2018-06-25T05:25:31.934Z,13.82
2018-06-25T05:28:02.080Z,13.80
2018-06-25T05:30:32.179Z,13.81
2018-06-25T05:33:02.194Z,13.83
2018-06-25T05:35:32.309Z,13.77
2018-06-25T05:38:02.342Z,13.60
2018-06-25T05:40:32.431Z,13.72
2018-06-25T05:43:02.465Z,13.82
2018-06-25T05:45:32.610Z,13.82
2018-06-25T05:48:02.706Z,13.83
2018-06-25T05:50:32.424Z,13.89
2018-06-25T05:53:02.470Z,13.75
2018-06-25T05:55:32.827Z,13.81
2018-06-25T05:58:03.233Z,13.95
2018-06-25T06:00:33.326Z,14.06
2018-06-25T06:03:03.411Z,14.09
2018-06-25T06:05:33.573Z,14.12
2018-06-25T06:08:03.879Z,14.24
2018-06-25T06:10:33.911Z,13.82
2018-06-25T06:13:03.521Z,14.15
2018-06-25T06:15:33.261Z,14.20
2018-06-25T06:18:03.299Z,14.39
2018-06-25T06:20:33.381Z,14.38
2018-06-25T06:23:03.041Z,14.38
2018-06-25T06:25:33.137Z,14.38
2018-06-25T06:28:03.171Z,14.46
2018-06-25T06:30:33.276Z,14.53
2018-06-25T06:33:03.427Z,14.52
2018-06-25T06:35:33.536Z,14.63
2018-06-25T06:38:03.788Z,14.61
2018-06-25T06:40:33.905Z,14.52
2018-06-25T06:43:03.989Z,14.55
2018-06-25T06:45:33.674Z,14.53
2018-06-25T06:48:04.001Z,14.36
2018-06-25T06:50:33.857Z,14.61
2018-06-25T06:53:03.935Z,14.73
2018-06-25T06:55:34.074Z,14.78
2018-06-25T06:58:04.218Z,14.80
2018-06-25T07:00:33.912Z,14.89
2018-06-25T07:03:04.226Z,14.95
2018-06-25T07:05:34.344Z,14.82
2018-06-25T07:08:04.526Z,14.96
2018-06-25T07:10:34.590Z,15.08
2018-06-25T07:13:04.616Z,15.09
2018-06-25T07:15:34.748Z,15.08
2018-06-25T07:18:04.793Z,15.17
2018-06-25T07:20:35.996Z,15.04
2018-06-25T07:23:06.177Z,15.00
2018-06-25T07:25:36.264Z,15.14
2018-06-25T07:28:07.833Z,15.27
2018-06-25T07:30:37.462Z,15.38
2018-06-25T07:33:07.878Z,15.44
2018-06-25T07:35:37.959Z,15.47
2018-06-25T07:38:08.117Z,15.53
2018-06-25T07:40:38.208Z,15.61
2018-06-25T07:43:08.335Z,15.68
2018-06-25T07:45:38.377Z,15.65
2018-06-25T07:48:08.465Z,15.81
2018-06-25T07:50:38.551Z,15.73
2018-06-25T07:53:08.630Z,15.73
2018-06-25T07:55:38.765Z,15.70
2018-06-25T07:58:08.903Z,15.72
2018-06-25T08:00:38.965Z,15.69
2018-06-25T08:03:09.092Z,15.70
2018-06-25T08:05:39.172Z,15.73
2018-06-25T08:08:08.984Z,15.72
2018-06-25T08:10:39.039Z,15.79
2018-06-25T08:13:09.139Z,15.84
2018-06-25T08:15:39.166Z,15.87
2018-06-25T08:18:09.322Z,15.87
2018-06-25T08:20:39.483Z,15.84
2018-06-25T08:23:09.601Z,15.93
2018-06-25T08:25:39.858Z,15.97
2018-06-25T08:28:09.960Z,16.01
2018-06-25T08:30:40.039Z,15.84
2018-06-25T08:33:10.165Z,15.96
2018-06-25T08:35:40.235Z,16.06
2018-06-25T08:38:10.323Z,15.99
2018-06-25T08:40:40.339Z,16.01
2018-06-25T08:43:10.474Z,16.07
2018-06-25T08:45:40.481Z,16.15
2018-06-25T08:48:10.571Z,16.05
2018-06-25T08:50:40.614Z,16.06
2018-06-25T08:53:10.748Z,15.95
2018-06-25T08:55:40.762Z,15.97
2018-06-25T08:58:10.871Z,16.15
2018-06-25T09:00:40.913Z,16.19
2018-06-25T09:03:11.326Z,16.33
2018-06-25T09:05:41.523Z,16.40
2018-06-25T09:08:11.749Z,16.48
2018-06-25T09:10:41.819Z,16.55
2018-06-25T09:13:11.952Z,16.49
2018-06-25T09:15:42.212Z,16.57
2018-06-25T09:18:12.444Z,16.52
2018-06-25T09:20:42.435Z,16.66
2018-06-25T09:23:12.535Z,16.58
2018-06-25T09:25:42.565Z,16.85
2018-06-25T09:28:12.660Z,16.99
2018-06-25T09:30:42.700Z,17.06
2018-06-25T09:33:13.137Z,17.34
2018-06-25T09:35:43.221Z,17.45
2018-06-25T09:38:13.291Z,17.51
2018-06-25T09:40:43.353Z,17.45
2018-06-25T09:43:13.697Z,17.70
2018-06-25T09:45:44.165Z,17.77
2018-06-25T09:48:14.337Z,17.68
2018-06-25T09:50:44.347Z,17.78
2018-06-25T09:53:14.403Z,17.76
2018-06-25T09:55:44.499Z,17.82
2018-06-25T09:58:14.769Z,17.55
2018-06-25T10:00:49.903Z,17.58
2018-06-25T10:03:20.022Z,17.49
2018-06-25T10:05:50.259Z,17.74
2018-06-25T10:08:20.365Z,18.00
2018-06-25T10:10:50.408Z,18.32
2018-06-25T10:13:20.460Z,18.45
2018-06-25T10:15:50.516Z,18.63
2018-06-25T10:18:20.672Z,18.77
2018-06-25T10:20:50.757Z,18.72
2018-06-25T10:23:20.827Z,18.42
2018-06-25T10:25:50.887Z,18.55
2018-06-25T10:28:20.887Z,18.82
2018-06-25T10:30:51.080Z,19.14
2018-06-25T10:33:21.083Z,19.27
2018-06-25T10:35:51.126Z,19.30
2018-06-25T10:38:21.171Z,19.09
2018-06-25T10:40:50.839Z,18.54
2018-06-25T10:43:20.882Z,18.90
2018-06-25T10:45:50.998Z,18.92
2018-06-25T10:48:21.092Z,18.85
2018-06-25T10:50:51.252Z,18.84
2018-06-25T10:53:21.287Z,18.79
2018-06-25T10:55:51.362Z,18.79
2018-06-25T10:58:21.350Z,18.73
2018-06-25T11:00:51.419Z,18.71
2018-06-25T11:03:21.732Z,18.74
2018-06-25T11:05:51.970Z,18.41
2018-06-25T11:08:22.154Z,18.70
2018-06-25T11:10:51.902Z,18.61
2018-06-25T11:13:22.024Z,18.61
2018-06-25T11:15:52.149Z,18.66
2018-06-25T11:18:22.211Z,18.81
2018-06-25T11:20:52.353Z,19.11
2018-06-25T11:23:22.505Z,19.16
2018-06-25T11:25:52.600Z,19.41
2018-06-25T11:28:22.527Z,19.54
2018-06-25T11:30:52.217Z,19.17
2018-06-25T11:33:22.841Z,19.16
2018-06-25T11:35:52.889Z,19.27
2018-06-25T11:38:22.919Z,19.26
2018-06-25T11:40:53.060Z,19.10
2018-06-25T11:43:23.123Z,19.11
2018-06-25T11:45:53.240Z,19.15
2018-06-25T11:48:23.394Z,19.18
2018-06-25T11:50:53.092Z,19.17
2018-06-25T11:53:23.207Z,19.15
2018-06-25T11:55:53.458Z,19.50
2018-06-25T11:58:23.138Z,19.61
2018-06-25T12:00:53.262Z,19.64
2018-06-25T12:03:23.396Z,19.75
2018-06-25T12:05:53.555Z,19.73
2018-06-25T12:08:23.595Z,19.66
2018-06-25T12:10:53.719Z,19.50
2018-06-25T12:13:24.012Z,19.51
2018-06-25T12:15:53.742Z,19.31
2018-06-25T12:18:23.821Z,19.39
2018-06-25T12:20:53.926Z,19.52
2018-06-25T12:23:24.114Z,19.33
2018-06-25T12:25:54.557Z,19.23
2018-06-25T12:28:24.614Z,19.41
2018-06-25T12:30:54.756Z,19.43
2018-06-25T12:33:24.827Z,19.35
2018-06-25T12:35:55.222Z,19.71
2018-06-25T12:38:24.855Z,19.87
2018-06-25T12:40:55.009Z,20.05
2018-06-25T12:43:25.061Z,20.30
2018-06-25T12:45:55.126Z,20.49
2018-06-25T12:48:25.321Z,20.52
2018-06-25T12:50:55.360Z,20.62
2018-06-25T12:53:25.439Z,20.82
2018-06-25T12:55:55.525Z,21.02
2018-06-25T12:58:25.572Z,21.08
2018-06-25T13:00:55.725Z,21.08
2018-06-25T13:03:25.763Z,21.11
2018-06-25T13:05:55.433Z,21.02
2018-06-25T13:08:25.463Z,20.93
2018-06-25T13:10:56.261Z,20.72
2018-06-25T13:13:26.271Z,20.71
2018-06-25T13:15:56.341Z,20.53
2018-06-25T13:18:26.447Z,20.47
2018-06-25T13:20:56.497Z,20.60
2018-06-25T13:23:26.621Z,20.45
2018-06-25T13:25:56.759Z,20.57
2018-06-25T13:28:26.769Z,20.61
2018-06-25T13:30:56.862Z,20.69
2018-06-25T13:33:26.854Z,20.71
2018-06-25T13:35:56.985Z,20.75
2018-06-25T13:38:27.119Z,20.80
2018-06-25T13:40:57.439Z,20.91
2018-06-25T13:43:27.507Z,20.72
2018-06-25T13:45:57.177Z,20.69
2018-06-25T13:48:27.230Z,20.63
2018-06-25T13:50:57.308Z,20.64
2018-06-25T13:53:27.383Z,20.37
2018-06-25T13:55:57.415Z,20.19
2018-06-25T13:58:27.489Z,20.44
2018-06-25T14:00:57.496Z,20.32
2018-06-25T14:03:27.554Z,20.33
2018-06-25T14:05:57.578Z,20.23
2018-06-25T14:08:27.610Z,20.21
2018-06-25T14:10:57.807Z,20.13
2018-06-25T14:13:27.868Z,20.38
2018-06-25T14:15:57.980Z,20.49
2018-06-25T14:18:28.183Z,20.72
2018-06-25T14:20:58.294Z,20.79
2018-06-25T14:23:28.638Z,20.92
2018-06-25T14:26:03.825Z,20.98
2018-06-25T14:28:35.580Z,21.16
2018-06-25T14:31:10.606Z,21.24
2018-06-25T14:33:43.259Z,21.51
2018-06-25T14:36:13.804Z,21.61
2018-06-25T14:38:44.405Z,21.72
2018-06-25T14:41:14.676Z,21.93
2018-06-25T14:43:44.637Z,22.15
2018-06-25T14:46:14.999Z,22.25
2018-06-25T14:48:45.444Z,22.29
2018-06-25T14:51:15.904Z,22.19
2018-06-25T14:53:46.532Z,22.09
2018-06-25T14:56:17.006Z,21.97
2018-06-25T14:58:47.437Z,21.91
2018-06-25T15:01:17.768Z,21.97
2018-06-25T15:03:48.281Z,21.65
2018-06-25T15:06:18.807Z,21.69
2018-06-25T15:08:49.453Z,21.66
2018-06-25T15:11:19.807Z,21.52
2018-06-25T15:13:49.867Z,21.62
2018-06-25T15:16:20.142Z,21.66
2018-06-25T15:18:50.563Z,21.68
2018-06-25T15:21:20.838Z,21.43
2018-06-25T15:23:51.239Z,21.53
2018-06-25T15:26:21.612Z,21.53
2018-06-25T15:28:52.086Z,21.46
2018-06-25T15:31:22.448Z,21.50
2018-06-25T15:33:52.992Z,21.58
2018-06-25T15:36:23.483Z,21.62
2018-06-25T15:38:53.542Z,21.75
2018-06-25T15:41:23.466Z,21.71
2018-06-25T15:43:54.467Z,21.76
2018-06-25T15:46:24.915Z,21.82
2018-06-25T15:48:55.715Z,21.95
2018-06-25T15:51:26.191Z,21.97
2018-06-25T15:53:56.822Z,22.06
2018-06-25T15:56:27.095Z,21.90
2018-06-25T15:58:57.521Z,21.94
2018-06-25T16:01:27.596Z,21.99
2018-06-25T16:03:57.920Z,21.96
2018-06-25T16:06:28.431Z,21.96
2018-06-25T16:08:58.833Z,21.96
2018-06-25T16:11:29.155Z,21.97
2018-06-25T16:13:59.570Z,21.94
2018-06-25T16:16:29.638Z,21.96
2018-06-25T16:18:59.742Z,21.86
2018-06-25T16:21:30.162Z,21.83
2018-06-25T16:24:00.551Z,21.82
2018-06-25T16:26:30.874Z,21.78
2018-06-25T16:29:01.294Z,21.67
2018-06-25T16:31:31.359Z,21.60
2018-06-25T16:34:01.395Z,21.57
2018-06-25T16:36:31.961Z,21.43
2018-06-25T16:39:10.142Z,21.36
2018-06-25T16:41:40.810Z,21.28
2018-06-25T16:44:11.713Z,21.30
2018-06-25T16:46:44.536Z,21.35
2018-06-25T16:49:15.042Z,21.31
2018-06-25T16:51:46.410Z,21.20
2018-06-25T16:54:16.705Z,21.21
2018-06-25T16:56:47.341Z,21.15
2018-06-25T16:59:17.442Z,21.02
2018-06-25T17:01:47.670Z,21.01
2018-06-25T17:04:17.780Z,20.90
2018-06-25T17:06:48.129Z,20.63
2018-06-25T17:09:18.366Z,20.77
2018-06-25T17:11:48.682Z,20.72
2018-06-25T17:14:19.307Z,20.54
2018-06-25T17:16:49.715Z,20.56
2018-06-25T17:19:21.031Z,20.38
2018-06-25T17:21:52.308Z,20.31
2018-06-25T17:24:22.440Z,20.24
2018-06-25T17:26:52.504Z,20.17
2018-06-25T17:29:23.049Z,20.13
2018-06-25T17:31:54.614Z,20.06
2018-06-25T17:34:24.830Z,20.01
2018-06-25T17:36:54.911Z,20.01
2018-06-25T17:39:25.144Z,20.04
2018-06-25T17:41:55.288Z,20.10
2018-06-25T17:44:25.384Z,20.11
2018-06-25T17:46:55.641Z,20.16
2018-06-25T17:49:25.707Z,20.14
2018-06-25T17:51:55.785Z,20.21
2018-06-25T17:54:25.918Z,20.18
2018-06-25T17:56:55.986Z,20.19
2018-06-25T17:59:26.022Z,20.20
2018-06-25T18:01:56.052Z,20.25
2018-06-25T18:04:26.164Z,20.20
2018-06-25T18:06:56.300Z,20.22
2018-06-25T18:09:26.411Z,20.08
2018-06-25T18:11:56.481Z,19.97
2018-06-25T18:14:26.535Z,19.84
2018-06-25T18:16:56.651Z,19.80
2018-06-25T18:19:26.707Z,19.80
2018-06-25T18:21:56.818Z,19.76
2018-06-25T18:24:27.198Z,19.70
2018-06-25T18:26:57.335Z,19.61
2018-06-25T18:29:27.430Z,19.54
2018-06-25T18:31:57.545Z,19.52
2018-06-25T18:34:27.605Z,19.48
2018-06-25T18:36:57.871Z,19.38
2018-06-25T18:39:27.515Z,19.26
2018-06-25T18:41:57.846Z,19.18
2018-06-25T18:44:28.011Z,19.07
2018-06-25T18:46:58.134Z,18.97
2018-06-25T18:49:29.095Z,18.89
2018-06-25T18:51:59.283Z,18.80
2018-06-25T18:54:29.373Z,18.70
2018-06-25T18:56:59.532Z,18.57
2018-06-25T18:59:29.855Z,18.49
2018-06-25T19:02:00.091Z,18.37
2018-06-25T19:04:30.162Z,18.32
2018-06-25T19:07:00.309Z,18.27
2018-06-25T19:09:30.453Z,18.14
2018-06-25T19:12:00.643Z,18.06
2018-06-25T19:14:30.738Z,17.98
2018-06-25T19:17:00.473Z,17.89
2018-06-25T19:19:30.602Z,17.83
2018-06-25T19:22:00.774Z,17.75
2018-06-25T19:24:30.949Z,17.69
2018-06-25T19:27:01.178Z,17.64
2018-06-25T19:29:31.319Z,17.53
2018-06-25T19:32:01.492Z,17.42
2018-06-25T19:34:31.162Z,17.34
2018-06-25T19:37:01.426Z,17.21
2018-06-25T19:39:31.535Z,17.10
2018-06-25T19:42:01.641Z,17.02
2018-06-25T19:44:31.742Z,16.89
2018-06-25T19:47:01.889Z,16.79
2018-06-25T19:49:32.011Z,16.73
2018-06-25T19:52:02.116Z,16.61
2018-06-25T19:54:32.314Z,16.48
2018-06-25T19:57:02.432Z,16.40
2018-06-25T19:59:32.078Z,16.28
2018-06-25T20:02:02.407Z,16.25
2018-06-25T20:04:32.536Z,16.16
2018-06-25T20:07:02.762Z,16.00
2018-06-25T20:09:32.873Z,15.92
2018-06-25T20:12:02.996Z,15.89
2018-06-25T20:14:33.130Z,15.85
2018-06-25T20:17:03.478Z,15.75
2018-06-25T20:19:33.622Z,15.67
2018-06-25T20:22:04.047Z,15.61
2018-06-25T20:24:34.156Z,15.58
2018-06-25T20:27:04.539Z,15.54
2018-06-25T20:29:34.731Z,15.51
2018-06-25T20:32:05.375Z,15.46
2018-06-25T20:34:35.059Z,15.21
2018-06-25T20:37:05.322Z,15.39
2018-06-25T20:39:35.509Z,15.30
2018-06-25T20:42:05.772Z,15.28
2018-06-25T20:44:36.097Z,15.22
2018-06-25T20:47:06.297Z,15.18
2018-06-25T20:49:36.465Z,15.11
2018-06-25T20:52:06.604Z,15.07
2018-06-25T20:54:36.911Z,15.02
2018-06-25T20:57:07.119Z,15.02
2018-06-25T20:59:36.828Z,14.97
2018-06-25T21:02:07.022Z,14.88
2018-06-25T21:04:37.441Z,14.82
2018-06-25T21:07:07.605Z,14.74
2018-06-25T21:09:37.278Z,14.68
2018-06-25T21:12:07.421Z,14.64
2018-06-25T21:14:37.514Z,14.62
2018-06-25T21:17:07.609Z,14.60
2018-06-25T21:19:37.720Z,14.56
2018-06-25T21:22:07.426Z,14.51
2018-06-25T21:24:37.540Z,14.45
2018-06-25T21:27:07.782Z,14.41
2018-06-25T21:29:37.895Z,14.33
2018-06-25T21:32:08.258Z,14.26
2018-06-25T21:34:38.400Z,14.21
2018-06-25T21:37:08.476Z,14.12
2018-06-25T21:39:38.593Z,14.05
2018-06-25T21:42:08.667Z,13.99
2018-06-25T21:44:38.851Z,13.99
2018-06-25T21:47:08.936Z,13.91
2018-06-25T21:49:39.066Z,13.90
2018-06-25T21:52:09.183Z,13.91
2018-06-25T21:54:39.308Z,13.91
2018-06-25T21:57:09.415Z,13.89
2018-06-25T21:59:39.551Z,13.82
2018-06-25T22:02:09.712Z,13.79
2018-06-25T22:04:39.831Z,13.76
2018-06-25T22:07:09.947Z,13.76
2018-06-25T22:09:40.078Z,13.73
2018-06-25T22:12:09.703Z,13.71
2018-06-25T22:14:39.745Z,13.73
2018-06-25T22:17:09.832Z,13.73
2018-06-25T22:19:39.990Z,13.74
2018-06-25T22:22:10.105Z,13.72
2018-06-25T22:24:40.157Z,13.71
2018-06-25T22:27:10.232Z,13.73
2018-06-25T22:29:40.374Z,13.74
2018-06-25T22:32:10.499Z,13.79
2018-06-25T22:34:40.603Z,13.84
2018-06-25T22:37:10.725Z,13.88
2018-06-25T22:39:40.865Z,13.87
2018-06-25T22:42:10.939Z,13.92
2018-06-25T22:44:41.025Z,13.92
2018-06-25T22:47:11.130Z,13.92
2018-06-25T22:49:41.283Z,13.96
2018-06-25T22:52:11.356Z,13.96
2018-06-25T22:54:41.619Z,13.97
2018-06-25T22:57:11.648Z,14.01
2018-06-25T22:59:41.869Z,14.02
2018-06-25T23:02:12.039Z,13.98
2018-06-25T23:04:41.772Z,13.96
2018-06-25T23:07:11.923Z,14.01
2018-06-25T23:09:42.015Z,14.01
2018-06-25T23:12:12.120Z,14.08
2018-06-25T23:14:41.806Z,14.05
2018-06-25T23:17:11.904Z,14.11
2018-06-25T23:19:41.979Z,14.10
2018-06-25T23:22:12.067Z,14.10
2018-06-25T23:24:42.179Z,14.12
2018-06-25T23:27:12.281Z,14.14
2018-06-25T23:29:42.491Z,14.11
2018-06-25T23:32:13.112Z,14.14
2018-06-25T23:34:43.188Z,14.09
2018-06-25T23:37:13.315Z,14.01
2018-06-25T23:39:43.358Z,13.91
2018-06-25T23:42:13.428Z,13.92
2018-06-25T23:44:43.502Z,13.94
2018-06-25T23:47:13.604Z,13.93
2018-06-25T23:49:43.674Z,13.81
2018-06-25T23:52:13.786Z,13.78
2018-06-25T23:54:43.549Z,13.24
2018-06-25T23:57:13.652Z,13.71
2018-06-25T23:59:43.835Z,13.72
